Time;durP1;ratioP1;P1;durP2;ratioP2;P2;SDS_P1;SDS_P2;PMS_P1;PMS_P2;Temp;Humidity;BMP_temperature;BMP_pressure;BME280_temperature;BME280_humidity;BME280_pressure;Samples;Min_cycle;Max_cycle;Signal;HPM_P1;HPM_P2
2023/05/26 00:02:24;;;;;;;11.33;3.87;;;11.00;99.90;;;;;;5061641;28;20500;-59
2023/05/26 00:04:51;;;;;;;17.33;4.30;;;11.00;99.90;;;;;;5070201;28;20206;-59
2023/05/26 00:07:18;;;;;;;18.10;4.50;;;11.00;99.90;;;;;;5074000;28;20661;-59
2023/05/26 00:09:45;;;;;;;15.53;4.13;;;11.00;99.90;;;;;;5066791;28;20205;-59
2023/05/26 00:12:12;;;;;;;20.97;4.10;;;11.10;99.90;;;;;;5080515;28;20200;-59
2023/05/26 00:14:39;;;;;;;15.97;4.63;;;11.10;99.90;;;;;;5074652;28;20210;-59
2023/05/26 00:17:07;;;;;;;15.33;3.70;;;11.00;99.90;;;;;;5080084;28;20206;-59
2023/05/26 00:19:35;;;;;;;15.63;4.23;;;11.00;99.90;;;;;;5060857;28;20254;-59
2023/05/26 00:22:02;;;;;;;19.47;4.50;;;11.00;99.90;;;;;;5079195;28;20219;-59
2023/05/26 00:24:29;;;;;;;14.03;4.47;;;11.00;99.90;;;;;;5056597;28;20227;-58
2023/05/26 00:26:56;;;;;;;19.23;4.07;;;11.10;99.90;;;;;;5068097;28;20191;-59
2023/05/26 00:29:23;;;;;;;15.77;4.83;;;10.90;99.90;;;;;;5083949;28;20213;-60
2023/05/26 00:31:56;;;;;;;20.10;4.40;;;11.00;99.90;;;;;;5066812;28;20573;-59
2023/05/26 00:34:23;;;;;;;15.10;4.63;;;10.90;99.90;;;;;;5077882;28;20601;-59
2023/05/26 00:36:50;;;;;;;22.70;5.43;;;10.80;99.90;;;;;;5079124;28;20222;-59
2023/05/26 00:39:16;;;;;;;19.33;4.50;;;10.70;99.90;;;;;;5046466;28;20215;-59
2023/05/26 00:41:43;;;;;;;20.60;4.47;;;10.90;99.90;;;;;;5076468;28;20271;-59
2023/05/26 00:44:10;;;;;;;18.73;4.80;;;10.80;99.90;;;;;;5077884;28;20556;-59
2023/05/26 00:46:37;;;;;;;20.70;4.57;;;10.90;99.90;;;;;;5079427;28;20201;-59
2023/05/26 00:49:04;;;;;;;16.90;4.10;;;10.60;99.90;;;;;;5077387;28;20218;-59
2023/05/26 00:51:33;;;;;;;14.87;4.20;;;10.60;99.90;;;;;;5080570;28;20242;-58
2023/05/26 00:54:00;;;;;;;21.23;4.77;;;10.80;99.90;;;;;;5051132;28;20530;-59
2023/05/26 00:56:28;;;;;;;13.70;3.83;;;10.70;99.90;;;;;;5079837;28;20650;-59
2023/05/26 00:58:56;;;;;;;21.20;4.87;;;10.80;99.90;;;;;;5058963;28;20219;-62
2023/05/26 01:01:23;;;;;;;20.57;4.30;;;10.60;99.90;;;;;;5052282;28;21716;-59
2023/05/26 01:03:50;;;;;;;20.83;5.43;;;10.60;99.90;;;;;;5076766;28;20200;-59
2023/05/26 01:06:18;;;;;;;17.37;4.60;;;10.50;99.90;;;;;;5063407;28;20207;-59
2023/05/26 01:08:44;;;;;;;18.93;3.70;;;10.50;99.90;;;;;;5061469;28;20251;-59
2023/05/26 01:11:18;;;;;;;12.40;3.47;;;10.60;99.90;;;;;;5083783;28;20256;-59
2023/05/26 01:14:10;;;;;;;16.77;4.43;;;10.70;99.90;;;;;;5079639;28;20670;-59
2023/05/26 01:16:43;;;;;;;14.37;4.17;;;10.60;99.90;;;;;;5069379;28;20511;-59
2023/05/26 01:19:34;;;;;;;15.70;3.87;;;10.60;99.90;;;;;;5080388;28;20212;-60
2023/05/26 01:22:17;;;;;;;13.53;3.83;;;10.50;99.90;;;;;;5081851;28;20272;-59
2023/05/26 01:25:10;;;;;;;16.50;4.77;;;10.50;99.90;;;;;;5079909;28;20318;-59
2023/05/26 01:27:47;;;;;;;17.13;4.43;;;10.50;99.90;;;;;;5082743;28;20189;-59
2023/05/26 01:30:16;;;;;;;15.17;3.77;;;10.60;99.90;;;;;;5085423;28;20205;-59
2023/05/26 01:32:47;;;;;;;17.57;4.37;;;10.60;99.90;;;;;;5079478;28;20220;-59
2023/05/26 01:35:15;;;;;;;20.50;4.17;;;10.30;99.90;;;;;;5087829;28;20201;-58
2023/05/26 01:37:45;;;;;;;14.43;3.87;;;10.40;99.90;;;;;;5089468;28;20205;-59
2023/05/26 01:40:12;;;;;;;14.50;4.17;;;10.30;99.90;;;;;;5072569;28;20195;-59
2023/05/26 01:42:42;;;;;;;17.63;4.77;;;10.30;99.90;;;;;;5069841;28;20223;-60
2023/05/26 01:45:15;;;;;;;17.70;4.03;;;10.40;99.90;;;;;;5075976;28;20203;-59
2023/05/26 01:47:45;;;;;;;13.53;4.43;;;10.20;99.90;;;;;;5085512;28;20207;-59
2023/05/26 01:50:13;;;;;;;16.63;4.63;;;10.30;99.90;;;;;;5080425;28;20206;-59
2023/05/26 01:52:43;;;;;;;16.63;3.80;;;10.40;99.90;;;;;;5086985;28;20227;-59
2023/05/26 01:55:13;;;;;;;17.80;4.00;;;10.30;99.90;;;;;;5088027;28;20242;-59
2023/05/26 01:57:45;;;;;;;10.95;3.40;;;10.40;99.90;;;;;;5087166;28;20200;-59
2023/05/26 02:00:12;;;;;;;21.97;4.13;;;10.30;99.90;;;;;;5084238;28;20199;-59
2023/05/26 02:02:39;;;;;;;19.80;4.33;;;10.30;99.90;;;;;;5065826;28;20201;-59
2023/05/26 02:05:07;;;;;;;15.67;4.20;;;10.30;99.90;;;;;;5080814;28;20609;-59
2023/05/26 02:07:35;;;;;;;16.33;3.77;;;10.40;99.90;;;;;;5062521;28;20248;-58
2023/05/26 02:10:03;;;;;;;14.77;4.07;;;10.30;99.90;;;;;;5080939;28;20286;-59
2023/05/26 02:12:29;;;;;;;16.57;4.00;;;10.30;99.90;;;;;;5075582;28;20220;-59
2023/05/26 02:14:56;;;;;;;16.47;4.03;;;10.20;99.90;;;;;;5076464;28;20260;-59
2023/05/26 02:17:23;;;;;;;19.10;3.60;;;10.20;99.90;;;;;;5075918;28;20218;-59
2023/05/26 02:19:51;;;;;;;22.30;4.70;;;10.30;99.90;;;;;;5073679;28;20226;-59
2023/05/26 02:22:18;;;;;;;17.93;4.73;;;10.10;99.90;;;;;;5075028;28;20200;-59
2023/05/26 02:24:45;;;;;;;16.27;4.00;;;10.10;99.90;;;;;;5070384;28;20290;-59
2023/05/26 02:27:12;;;;;;;14.33;4.23;;;10.10;99.90;;;;;;5056579;28;20324;-59
2023/05/26 02:29:39;;;;;;;19.50;3.87;;;10.00;99.90;;;;;;5081310;28;20675;-59
2023/05/26 02:32:06;;;;;;;18.03;3.60;;;9.90;99.90;;;;;;5057747;28;20213;-59
2023/05/26 02:34:33;;;;;;;16.37;4.00;;;9.90;99.90;;;;;;5077437;28;20238;-58
2023/05/26 02:36:59;;;;;;;16.37;4.40;;;9.90;99.90;;;;;;5076373;28;20209;-59
2023/05/26 02:39:26;;;;;;;15.77;4.33;;;9.90;99.90;;;;;;5079434;28;20225;-59
2023/05/26 02:41:53;;;;;;;18.10;4.17;;;9.90;99.90;;;;;;5077693;28;21542;-60
2023/05/26 02:44:20;;;;;;;19.77;4.43;;;10.00;99.90;;;;;;5078670;28;20293;-59
2023/05/26 02:46:47;;;;;;;19.53;4.20;;;9.90;99.90;;;;;;5060406;28;20250;-59
2023/05/26 02:49:14;;;;;;;13.90;3.67;;;9.90;99.90;;;;;;5079484;28;20290;-59
2023/05/26 02:51:41;;;;;;;16.60;3.60;;;9.80;99.90;;;;;;5075504;28;20199;-59
2023/05/26 02:54:08;;;;;;;18.57;4.10;;;9.70;99.90;;;;;;5077620;28;20203;-60
2023/05/26 02:56:35;;;;;;;16.83;4.20;;;9.70;99.90;;;;;;5078718;28;20207;-58
2023/05/26 02:59:02;;;;;;;15.07;4.47;;;9.60;99.90;;;;;;5058448;28;20635;-59
2023/05/26 03:01:29;;;;;;;17.83;4.17;;;9.70;99.90;;;;;;5060077;28;20202;-59
2023/05/26 03:03:56;;;;;;;15.03;3.60;;;9.70;99.90;;;;;;5075153;28;20198;-59
2023/05/26 03:06:24;;;;;;;17.70;3.73;;;9.40;99.90;;;;;;5076200;28;20591;-59
2023/05/26 03:08:51;;;;;;;16.50;4.30;;;9.30;99.90;;;;;;5059034;28;20286;-59
2023/05/26 03:11:18;;;;;;;20.07;4.63;;;9.30;99.90;;;;;;5058539;28;20309;-59
2023/05/26 03:13:45;;;;;;;13.67;3.57;;;9.30;99.90;;;;;;5077752;28;20210;-59
2023/05/26 03:16:12;;;;;;;12.57;3.87;;;9.30;99.90;;;;;;5071545;28;20279;-59
2023/05/26 03:18:38;;;;;;;14.93;4.17;;;9.50;99.90;;;;;;5065902;28;21024;-59
2023/05/26 03:21:06;;;;;;;22.23;4.23;;;9.20;99.90;;;;;;5074854;28;20202;-59
2023/05/26 03:23:53;;;;;;;23.47;4.47;;;9.30;99.90;;;;;;5073939;28;20223;-59
2023/05/26 03:26:22;;;;;;;13.40;4.07;;;9.30;99.90;;;;;;5047367;28;20210;-59
2023/05/26 03:28:49;;;;;;;19.30;4.00;;;9.40;99.90;;;;;;5056345;28;20202;-59
2023/05/26 03:31:16;;;;;;;19.00;3.67;;;9.40;99.90;;;;;;5052443;28;20253;-61
2023/05/26 03:33:45;;;;;;;17.50;6.27;;;9.30;99.90;;;;;;5025577;28;20901;-62
2023/05/26 03:36:12;;;;;;;13.17;3.93;;;9.30;99.90;;;;;;5070498;28;20202;-61
2023/05/26 03:38:38;;;;;;;21.87;3.73;;;9.40;99.90;;;;;;5079429;28;20265;-61
2023/05/26 03:41:05;;;;;;;14.40;3.80;;;9.50;99.90;;;;;;5073379;28;20486;-61
2023/05/26 03:43:32;;;;;;;26.80;4.67;;;9.60;99.90;;;;;;5069491;28;20212;-61
2023/05/26 03:46:00;;;;;;;17.07;4.60;;;9.60;99.90;;;;;;5074556;28;20203;-62
2023/05/26 03:48:28;;;;;;;17.90;3.93;;;9.60;99.90;;;;;;5068589;28;20733;-61
2023/05/26 03:50:55;;;;;;;21.47;4.20;;;9.50;99.90;;;;;;5063108;28;20600;-61
2023/05/26 03:53:22;;;;;;;18.40;4.23;;;9.60;99.90;;;;;;5076434;28;20202;-61
2023/05/26 03:55:49;;;;;;;18.17;4.23;;;9.70;99.90;;;;;;5069506;28;20215;-61
2023/05/26 03:58:15;;;;;;;13.40;4.10;;;9.50;99.90;;;;;;5073539;28;20768;-61
2023/05/26 04:00:42;;;;;;;19.70;4.53;;;9.60;99.90;;;;;;5081959;28;20721;-62
2023/05/26 04:03:10;;;;;;;19.20;3.97;;;9.50;99.90;;;;;;5073068;28;20216;-61
2023/05/26 04:05:38;;;;;;;18.90;4.80;;;9.50;99.90;;;;;;5074533;28;20206;-63
2023/05/26 04:08:05;;;;;;;15.60;3.80;;;9.50;99.90;;;;;;5074808;28;20199;-63
2023/05/26 04:10:32;;;;;;;19.87;5.27;;;9.40;99.90;;;;;;5076429;28;20216;-61
2023/05/26 04:12:59;;;;;;;20.40;3.90;;;9.40;99.90;;;;;;5075953;28;20252;-62
2023/05/26 04:15:26;;;;;;;17.50;4.13;;;9.50;99.90;;;;;;5077413;28;20204;-62
2023/05/26 04:17:53;;;;;;;18.53;5.10;;;9.60;99.90;;;;;;5055751;28;20208;-61
2023/05/26 04:20:20;;;;;;;15.50;3.90;;;9.50;99.90;;;;;;5079818;28;20221;-61
2023/05/26 04:22:47;;;;;;;18.70;5.57;;;9.50;99.90;;;;;;5078696;28;20206;-61
2023/05/26 04:25:14;;;;;;;16.90;3.80;;;9.60;99.90;;;;;;5079056;28;20318;-61
2023/05/26 04:27:42;;;;;;;20.50;4.27;;;9.60;99.90;;;;;;5076752;28;20544;-61
2023/05/26 04:30:09;;;;;;;14.73;4.17;;;9.60;99.90;;;;;;5082728;28;20217;-62
2023/05/26 04:32:37;;;;;;;14.37;3.73;;;9.60;99.90;;;;;;5071787;28;20219;-62
2023/05/26 04:35:05;;;;;;;13.70;4.10;;;9.60;99.90;;;;;;5061044;28;20211;-61
2023/05/26 04:37:33;;;;;;;20.13;4.37;;;9.50;99.90;;;;;;5083444;28;20206;-61
2023/05/26 04:40:05;;;;;;;26.17;5.13;;;9.60;99.90;;;;;;5083430;28;20272;-61
2023/05/26 04:42:34;;;;;;;18.77;3.67;;;9.40;99.90;;;;;;5082913;28;20643;-61
2023/05/26 04:45:03;;;;;;;17.23;3.70;;;9.30;99.90;;;;;;5086336;28;20231;-62
2023/05/26 04:47:34;;;;;;;13.97;3.53;;;9.40;99.90;;;;;;5078074;28;20201;-62
2023/05/26 04:50:02;;;;;;;13.60;4.40;;;9.50;99.90;;;;;;5068670;28;20214;-62
2023/05/26 04:52:29;;;;;;;16.73;3.73;;;9.60;99.90;;;;;;5079512;28;20208;-62
2023/05/26 04:54:57;;;;;;;16.80;4.13;;;9.50;99.90;;;;;;5081271;28;20761;-61
2023/05/26 04:57:24;;;;;;;17.57;3.77;;;9.50;99.90;;;;;;5082884;28;20203;-62
2023/05/26 04:59:51;;;;;;;14.90;4.43;;;9.50;99.90;;;;;;5079454;28;20759;-62
2023/05/26 05:02:17;;;;;;;17.07;3.60;;;9.50;99.90;;;;;;5079995;28;20206;-61
2023/05/26 05:04:45;;;;;;;19.37;4.20;;;9.70;99.90;;;;;;5079006;28;20539;-61
2023/05/26 05:07:12;;;;;;;19.20;3.53;;;9.80;99.90;;;;;;5081822;28;20204;-61
2023/05/26 05:09:39;;;;;;;16.40;4.10;;;9.80;99.90;;;;;;5060835;28;20662;-62
2023/05/26 05:12:06;;;;;;;15.27;4.37;;;9.70;99.90;;;;;;5082666;28;20206;-62
2023/05/26 05:14:33;;;;;;;24.60;4.23;;;9.90;99.90;;;;;;5075216;28;20647;-62
2023/05/26 05:17:00;;;;;;;15.07;4.77;;;9.90;99.90;;;;;;5082930;28;20210;-62
2023/05/26 05:19:27;;;;;;;10.07;3.83;;;9.80;99.90;;;;;;5052678;28;20219;-62
2023/05/26 05:21:54;;;;;;;14.80;3.83;;;9.90;99.90;;;;;;5081217;28;20198;-61
2023/05/26 05:24:21;;;;;;;15.50;4.60;;;9.80;99.90;;;;;;5081155;28;20643;-62
2023/05/26 05:26:48;;;;;;;19.10;4.37;;;9.90;99.90;;;;;;5075202;28;20366;-62
2023/05/26 05:29:15;;;;;;;18.37;4.17;;;10.10;99.90;;;;;;5055933;28;20211;-61
2023/05/26 05:31:42;;;;;;;18.90;4.33;;;10.10;99.90;;;;;;5077264;28;20229;-62
2023/05/26 05:34:09;;;;;;;16.23;4.60;;;10.20;99.90;;;;;;5073230;28;20262;-62
2023/05/26 05:36:36;;;;;;;18.50;3.83;;;10.10;99.90;;;;;;5082389;28;20254;-61
2023/05/26 05:39:03;;;;;;;11.20;3.70;;;10.20;99.90;;;;;;5069217;28;20219;-62
2023/05/26 05:41:30;;;;;;;18.73;3.73;;;10.20;99.90;;;;;;5063331;28;20192;-62
2023/05/26 05:43:57;;;;;;;14.43;3.90;;;10.20;99.90;;;;;;5067318;28;20252;-61
2023/05/26 05:46:24;;;;;;;16.90;4.20;;;10.10;99.90;;;;;;5059359;28;20199;-62
2023/05/26 05:48:51;;;;;;;19.70;5.43;;;10.10;99.90;;;;;;5079108;28;20810;-61
2023/05/26 05:51:18;;;;;;;17.83;3.97;;;10.20;99.90;;;;;;5076251;28;20971;-61
2023/05/26 05:53:45;;;;;;;20.87;5.53;;;10.30;99.90;;;;;;5080923;28;20190;-61
2023/05/26 05:56:12;;;;;;;18.67;4.20;;;10.20;99.90;;;;;;4721306;28;10000105;-62
2023/05/26 05:58:39;;;;;;;23.10;4.83;;;10.30;99.90;;;;;;5042720;28;20727;-62
2023/05/26 06:01:07;;;;;;;15.00;4.30;;;10.40;99.90;;;;;;5062501;28;20221;-61
2023/05/26 06:03:33;;;;;;;14.83;4.10;;;10.40;99.90;;;;;;5054872;28;20199;-61
2023/05/26 06:06:01;;;;;;;16.53;4.57;;;10.30;99.90;;;;;;5072848;28;20294;-61
2023/05/26 06:08:28;;;;;;;24.10;4.90;;;10.50;99.90;;;;;;5072050;28;20247;-60
2023/05/26 06:10:54;;;;;;;18.17;4.13;;;10.70;99.90;;;;;;5073791;28;20210;-61
2023/05/26 06:13:21;;;;;;;16.20;4.97;;;10.60;99.90;;;;;;5052000;28;20211;-61
2023/05/26 06:15:48;;;;;;;16.43;4.27;;;10.60;99.90;;;;;;5072377;28;20237;-63
2023/05/26 06:18:15;;;;;;;18.27;5.10;;;10.60;99.90;;;;;;5072392;28;20570;-61
2023/05/26 06:20:42;;;;;;;11.50;3.73;;;10.60;99.90;;;;;;5075401;28;20228;-61
2023/05/26 06:23:12;;;;;;;28.33;4.83;;;10.60;99.90;;;;;;5081779;28;20202;-61
2023/05/26 06:25:39;;;;;;;14.20;3.80;;;10.60;99.90;;;;;;5077073;28;20611;-61
2023/05/26 06:28:06;;;;;;;16.53;3.57;;;10.80;99.90;;;;;;5076167;28;20213;-60
2023/05/26 06:30:33;;;;;;;14.70;3.33;;;11.00;99.90;;;;;;5076020;28;20202;-60
2023/05/26 06:32:59;;;;;;;14.80;3.57;;;11.20;99.90;;;;;;5078067;28;20238;-60
2023/05/26 06:35:27;;;;;;;16.90;4.07;;;11.10;99.90;;;;;;5079289;28;20832;-60
2023/05/26 06:37:53;;;;;;;21.13;4.47;;;11.10;99.90;;;;;;5081817;28;20219;-60
2023/05/26 06:40:20;;;;;;;14.03;3.47;;;11.20;99.90;;;;;;5067219;28;20215;-60
2023/05/26 06:42:47;;;;;;;19.90;3.83;;;11.40;99.90;;;;;;5061619;28;20725;-60
2023/05/26 06:45:14;;;;;;;21.00;4.27;;;11.40;99.90;;;;;;5081325;28;20566;-60
2023/05/26 06:47:41;;;;;;;21.10;3.90;;;11.70;99.90;;;;;;5078144;28;20210;-61
2023/05/26 06:50:08;;;;;;;18.73;4.23;;;11.90;99.90;;;;;;5079411;28;20241;-60
2023/05/26 06:52:35;;;;;;;19.47;4.37;;;11.90;99.90;;;;;;5079122;28;20203;-60
2023/05/26 06:55:03;;;;;;;21.30;3.73;;;11.90;99.90;;;;;;5073357;28;20207;-60
2023/05/26 06:57:30;;;;;;;15.53;3.70;;;12.00;99.90;;;;;;5059636;28;20223;-61
2023/05/26 06:59:57;;;;;;;15.57;4.10;;;12.40;99.90;;;;;;5078480;28;20303;-60
2023/05/26 07:02:23;;;;;;;19.50;4.30;;;12.50;99.90;;;;;;5080678;28;20673;-60
2023/05/26 07:04:50;;;;;;;16.17;4.50;;;12.20;99.90;;;;;;5077816;28;20197;-60
2023/05/26 07:07:17;;;;;;;15.87;4.17;;;11.80;99.90;;;;;;5074262;28;20778;-60
2023/05/26 07:09:45;;;;;;;26.77;5.23;;;12.00;99.90;;;;;;5072177;28;20207;-63
2023/05/26 07:12:11;;;;;;;16.13;5.33;;;12.10;99.90;;;;;;5069710;28;20675;-60
2023/05/26 07:14:38;;;;;;;17.47;4.70;;;12.30;99.90;;;;;;5056017;28;20201;-61
2023/05/26 07:17:05;;;;;;;14.47;3.23;;;12.40;99.90;;;;;;5072702;28;20197;-61
2023/05/26 07:19:32;;;;;;;15.87;4.37;;;12.60;99.90;;;;;;5075574;28;20221;-60
2023/05/26 07:21:59;;;;;;;19.87;5.03;;;12.90;99.90;;;;;;5073017;28;20193;-61
2023/05/26 07:24:26;;;;;;;17.57;4.10;;;13.00;99.90;;;;;;5079069;28;21128;-60
2023/05/26 07:26:53;;;;;;;23.30;4.20;;;13.00;99.90;;;;;;5078357;28;20662;-60
2023/05/26 07:29:20;;;;;;;21.30;3.80;;;13.00;99.90;;;;;;5062658;28;20687;-60
2023/05/26 07:31:47;;;;;;;19.70;4.77;;;13.30;99.90;;;;;;5087513;28;20260;-60
2023/05/26 07:34:14;;;;;;;16.87;3.67;;;13.40;99.90;;;;;;5069152;28;20594;-60
2023/05/26 07:36:41;;;;;;;16.07;3.60;;;13.70;99.90;;;;;;5086206;28;20206;-60
2023/05/26 07:39:08;;;;;;;15.43;3.87;;;13.80;99.90;;;;;;5086062;28;20289;-60
2023/05/26 07:41:35;;;;;;;19.67;4.07;;;13.50;99.90;;;;;;5056225;28;20194;-60
2023/05/26 07:44:02;;;;;;;16.67;4.47;;;13.60;99.90;;;;;;5064933;28;20216;-60
2023/05/26 07:46:29;;;;;;;17.57;4.67;;;13.50;99.90;;;;;;5083563;28;20194;-60
2023/05/26 07:48:56;;;;;;;15.07;4.00;;;13.40;99.90;;;;;;5087123;28;20563;-60
2023/05/26 07:51:23;;;;;;;13.73;3.27;;;13.50;99.90;;;;;;5070382;28;20221;-60
2023/05/26 07:53:50;;;;;;;12.80;3.30;;;13.50;99.90;;;;;;5078149;28;20666;-61
2023/05/26 07:56:17;;;;;;;15.37;4.00;;;13.50;99.90;;;;;;5087030;28;20742;-60
2023/05/26 07:58:44;;;;;;;16.77;3.57;;;13.60;99.90;;;;;;5071638;28;20199;-60
2023/05/26 08:01:11;;;;;;;18.80;4.07;;;13.60;99.90;;;;;;5086938;28;20696;-60
2023/05/26 08:03:38;;;;;;;12.77;4.03;;;14.00;99.90;;;;;;5085583;28;20204;-61
2023/05/26 08:06:05;;;;;;;13.63;3.83;;;14.40;99.90;;;;;;5091019;28;20249;-61
2023/05/26 08:08:51;;;;;;;10.30;3.17;;;14.40;99.90;;;;;;5091647;28;20529;-60
2023/05/26 08:11:17;;;;;;;16.47;4.23;;;14.30;99.90;;;;;;5065370;28;20619;-60
2023/05/26 08:13:44;;;;;;;15.00;3.60;;;14.40;99.90;;;;;;5090659;28;20634;-60
2023/05/26 08:16:11;;;;;;;15.57;4.07;;;14.40;99.90;;;;;;5088401;28;20203;-60
2023/05/26 08:18:38;;;;;;;15.37;4.07;;;14.20;99.90;;;;;;5072744;28;20244;-60
2023/05/26 08:21:05;;;;;;;19.00;4.40;;;14.20;99.90;;;;;;5084478;28;20219;-61
2023/05/26 08:23:32;;;;;;;15.70;4.03;;;14.40;99.90;;;;;;5080245;28;20576;-60
2023/05/26 08:25:59;;;;;;;11.27;3.40;;;14.70;99.90;;;;;;5078634;28;20616;-60
2023/05/26 08:28:26;;;;;;;14.10;3.67;;;15.20;99.90;;;;;;5079755;28;20536;-60
2023/05/26 08:30:52;;;;;;;14.73;4.17;;;15.20;99.90;;;;;;5084612;28;20210;-61
2023/05/26 08:33:19;;;;;;;14.27;4.20;;;15.30;99.90;;;;;;5078407;28;20234;-61
2023/05/26 08:35:46;;;;;;;15.33;4.17;;;15.50;99.90;;;;;;5078155;28;20647;-60
2023/05/26 08:38:16;;;;;;;14.37;4.20;;;15.10;99.90;;;;;;5082731;28;20294;-62
2023/05/26 08:40:43;;;;;;;12.07;3.47;;;14.90;99.90;;;;;;5082183;28;20280;-62
2023/05/26 08:43:14;;;;;;;13.57;3.80;;;14.50;99.90;;;;;;5064530;28;20707;-62
2023/05/26 08:45:42;;;;;;;18.80;3.40;;;15.20;99.90;;;;;;5069190;28;22146;-61
2023/05/26 08:48:11;;;;;;;16.43;3.53;;;15.50;99.90;;;;;;5082323;28;20208;-60
2023/05/26 08:50:38;;;;;;;15.87;3.77;;;15.60;99.90;;;;;;5056134;28;20228;-60
2023/05/26 08:53:05;;;;;;;11.83;2.73;;;15.80;99.90;;;;;;5065770;28;20228;-61
2023/05/26 08:55:33;;;;;;;14.07;3.90;;;15.60;99.90;;;;;;5086521;28;20473;-61
2023/05/26 08:58:00;;;;;;;9.90;2.60;;;16.00;99.90;;;;;;5090393;28;20235;-60
2023/05/26 09:00:29;;;;;;;17.60;3.90;;;16.00;99.90;;;;;;5059076;28;20217;-61
2023/05/26 09:02:56;;;;;;;12.70;3.60;;;16.00;99.90;;;;;;5075397;28;20205;-61
2023/05/26 09:05:23;;;;;;;14.77;3.77;;;15.60;99.90;;;;;;5087306;28;20250;-61
2023/05/26 09:07:50;;;;;;;12.60;3.73;;;15.20;99.90;;;;;;5080066;28;20289;-60
2023/05/26 09:10:30;;;;;;;17.23;4.00;;;16.00;99.90;;;;;;5077661;28;20193;-61
2023/05/26 09:13:10;;;;;;;15.80;3.43;;;16.60;99.90;;;;;;5077621;28;20216;-60
2023/05/26 09:15:38;;;;;;;11.57;3.93;;;16.50;99.90;;;;;;5069471;28;20241;-60
2023/05/26 09:18:06;;;;;;;14.70;3.70;;;16.50;99.90;;;;;;5083841;28;20201;-61
2023/05/26 09:20:47;;;;;;;15.50;4.63;;;16.70;99.90;;;;;;5085958;28;20225;-60
2023/05/26 09:23:16;;;;;;;12.80;3.23;;;16.80;99.90;;;;;;5082109;28;20291;-61
2023/05/26 09:25:49;;;;;;;11.73;3.60;;;16.50;99.90;;;;;;5079409;28;20230;-61
2023/05/26 09:28:16;;;;;;;13.20;3.83;;;16.70;99.90;;;;;;5081505;28;20203;-61
2023/05/26 09:30:45;;;;;;;11.80;3.70;;;16.40;99.90;;;;;;5076313;28;20198;-61
2023/05/26 09:33:15;;;;;;;12.30;4.10;;;16.80;99.90;;;;;;5082388;28;20237;-61
2023/05/26 09:35:43;;;;;;;14.83;4.37;;;16.70;99.90;;;;;;5081700;28;20203;-61
2023/05/26 09:38:12;;;;;;;17.90;4.80;;;16.70;99.90;;;;;;5063031;28;20321;-61
2023/05/26 09:40:43;;;;;;;14.73;4.50;;;16.30;99.90;;;;;;5080721;28;20275;-61
2023/05/26 09:43:10;;;;;;;16.00;4.70;;;16.80;99.90;;;;;;5060483;28;20196;-60
2023/05/26 09:45:38;;;;;;;11.27;3.73;;;16.50;99.90;;;;;;5080525;28;20262;-61
2023/05/26 09:48:07;;;;;;;14.73;4.20;;;17.00;99.90;;;;;;5082513;28;21120;-61
2023/05/26 09:50:36;;;;;;;14.10;4.33;;;17.20;99.90;;;;;;5078590;28;20195;-62
2023/05/26 09:53:05;;;;;;;16.43;3.67;;;17.40;99.90;;;;;;5077481;28;20217;-61
2023/05/26 09:55:32;;;;;;;19.47;5.10;;;16.50;99.90;;;;;;5083410;28;20205;-61
2023/05/26 09:58:05;;;;;;;15.07;4.03;;;16.30;99.90;;;;;;5060925;28;20225;-61
2023/05/26 10:00:36;;;;;;;14.63;3.87;;;16.10;99.90;;;;;;5074861;28;20218;-61
2023/05/26 10:03:05;;;;;;;10.67;3.43;;;16.60;99.90;;;;;;5075219;28;20206;-60
2023/05/26 10:05:34;;;;;;;13.83;3.50;;;17.00;99.90;;;;;;5077785;28;20198;-60
2023/05/26 10:08:02;;;;;;;14.30;4.20;;;17.20;99.90;;;;;;5082297;28;20216;-61
2023/05/26 10:10:30;;;;;;;9.90;3.63;;;16.90;99.90;;;;;;5077802;28;20212;-60
2023/05/26 10:12:57;;;;;;;17.50;4.53;;;16.60;99.90;;;;;;5081437;28;20282;-62
2023/05/26 10:15:25;;;;;;;13.40;3.60;;;17.20;99.90;;;;;;5077650;28;20215;-63
2023/05/26 10:17:53;;;;;;;14.77;4.27;;;17.30;99.90;;;;;;5069363;28;20213;-61
2023/05/26 10:20:22;;;;;;;8.47;3.30;;;17.50;99.90;;;;;;5079521;28;20744;-61
2023/05/26 10:22:57;;;;;;;12.83;3.80;;;17.40;99.90;;;;;;5083161;28;20652;-60
2023/05/26 10:25:31;;;;;;;13.80;3.73;;;17.70;99.90;;;;;;5085910;28;20237;-60
2023/05/26 10:28:29;;;;;;;11.83;3.57;;;17.60;99.90;;;;;;5086591;28;20567;-61
2023/05/26 10:31:00;;;;;;;11.33;4.00;;;16.90;99.90;;;;;;5087789;28;20210;-58
2023/05/26 10:33:44;;;;;;;12.60;3.73;;;16.90;99.90;;;;;;5086822;28;20229;-58
2023/05/26 10:36:18;;;;;;;12.50;3.17;;;17.10;99.90;;;;;;5082709;28;20274;-58
2023/05/26 10:38:50;;;;;;;10.77;3.67;;;17.40;99.90;;;;;;5067214;28;20204;-58
2023/05/26 10:41:38;;;;;;;11.33;3.23;;;17.10;99.90;;;;;;5068140;28;20228;-58
2023/05/26 10:44:05;;;;;;;11.70;3.40;;;17.30;99.90;;;;;;5087544;28;20202;-58
2023/05/26 10:46:43;;;;;;;12.17;3.40;;;17.60;99.90;;;;;;5088331;28;20580;-59
2023/05/26 10:49:20;;;;;;;14.87;4.07;;;17.70;99.90;;;;;;5087709;28;20201;-59
2023/05/26 10:51:52;;;;;;;7.73;3.67;;;17.80;99.90;;;;;;5088173;28;20592;-58
2023/05/26 10:54:22;;;;;;;11.30;3.80;;;17.90;99.90;;;;;;5083657;28;20203;-58
2023/05/26 10:56:51;;;;;;;12.90;3.80;;;17.90;99.90;;;;;;5083765;28;21071;-58
2023/05/26 10:59:32;;;;;;;12.67;4.77;;;17.90;99.90;;;;;;5085259;28;20270;-58
2023/05/26 11:02:04;;;;;;;17.27;3.80;;;18.00;99.90;;;;;;5085360;28;20281;-58
2023/05/26 11:04:42;;;;;;;9.47;4.17;;;18.40;99.90;;;;;;5073741;28;20197;-58
2023/05/26 11:07:24;;;;;;;9.87;3.20;;;18.30;99.90;;;;;;5073487;28;20209;-58
2023/05/26 11:10:05;;;;;;;13.83;4.63;;;18.40;99.90;;;;;;5081399;28;20199;-58
2023/05/26 11:12:51;;;;;;;13.83;3.60;;;18.50;99.90;;;;;;5086331;28;20202;-59
2023/05/26 11:15:44;;;;;;;12.17;3.67;;;18.60;99.90;;;;;;5081901;28;20536;-58
2023/05/26 11:18:15;;;;;;;12.17;3.30;;;18.70;99.90;;;;;;5077587;28;20210;-58
2023/05/26 11:20:42;;;;;;;12.00;3.30;;;19.00;99.90;;;;;;5078496;28;20624;-58
2023/05/26 11:23:12;;;;;;;9.47;3.57;;;19.20;99.90;;;;;;5077695;28;20295;-58
2023/05/26 11:25:48;;;;;;;18.63;4.97;;;19.60;99.90;;;;;;5080148;28;20729;-62
2023/05/26 11:28:20;;;;;;;9.97;2.90;;;19.60;99.90;;;;;;5059216;28;20334;-58
2023/05/26 11:30:47;;;;;;;17.60;3.20;;;19.80;99.90;;;;;;5079733;28;20217;-58
2023/05/26 11:33:15;;;;;;;12.20;3.80;;;20.10;99.90;;;;;;5058232;28;20226;-58
2023/05/26 11:35:42;;;;;;;9.87;3.97;;;19.70;99.90;;;;;;5080378;28;20231;-59
2023/05/26 11:38:09;;;;;;;8.80;3.10;;;19.60;99.90;;;;;;5085953;28;20198;-58
2023/05/26 11:40:36;;;;;;;11.03;2.97;;;19.80;99.90;;;;;;5082723;28;20305;-61
2023/05/26 11:43:03;;;;;;;11.10;3.37;;;19.30;99.90;;;;;;5084989;28;20195;-59
2023/05/26 11:45:30;;;;;;;12.60;3.40;;;19.00;99.90;;;;;;5072144;28;20936;-58
2023/05/26 11:47:57;;;;;;;15.37;4.03;;;19.10;99.90;;;;;;5078238;28;20203;-58
2023/05/26 11:50:24;;;;;;;13.83;4.60;;;19.50;99.90;;;;;;5082144;28;20247;-59
2023/05/26 11:52:51;;;;;;;10.70;4.10;;;20.50;99.90;;;;;;5060388;28;20195;-59
2023/05/26 11:55:18;;;;;;;13.83;4.03;;;20.50;99.90;;;;;;5078588;28;20673;-59
2023/05/26 11:57:47;;;;;;;16.87;5.50;;;20.20;99.90;;;;;;5077160;28;20291;-59
2023/05/26 12:00:17;;;;;;;9.47;3.40;;;20.70;99.90;;;;;;5057871;28;20198;-59
2023/05/26 12:02:46;;;;;;;20.37;3.70;;;20.50;99.90;;;;;;5050722;28;20205;-60
2023/05/26 12:05:26;;;;;;;18.53;5.20;;;20.10;99.90;;;;;;5069602;28;20209;-59
2023/05/26 12:08:09;;;;;;;11.77;2.93;;;20.20;99.90;;;;;;5052080;28;20202;-58
2023/05/26 12:10:40;;;;;;;11.73;3.90;;;20.70;99.90;;;;;;5054943;28;20231;-58
2023/05/26 12:13:07;;;;;;;11.97;3.20;;;21.40;99.90;;;;;;5079017;28;20695;-58
2023/05/26 12:15:34;;;;;;;9.30;3.50;;;20.80;99.90;;;;;;5075356;28;20220;-59
2023/05/26 12:18:02;;;;;;;9.73;3.10;;;20.20;99.90;;;;;;5075964;28;20272;-58
2023/05/26 12:20:31;;;;;;;8.10;2.47;;;20.50;99.90;;;;;;5083367;28;20209;-59
2023/05/26 12:23:11;;;;;;;11.53;3.33;;;20.20;99.90;;;;;;5077081;28;20293;-59
2023/05/26 12:25:38;;;;;;;9.20;2.70;;;20.60;99.90;;;;;;5059563;28;20332;-59
2023/05/26 12:28:05;;;;;;;13.97;3.60;;;20.70;99.90;;;;;;5077323;28;20191;-58
2023/05/26 12:30:33;;;;;;;15.93;4.73;;;20.90;99.90;;;;;;5059386;28;20229;-58
2023/05/26 12:33:14;;;;;;;11.33;4.00;;;21.10;99.90;;;;;;5073596;28;20685;-58
2023/05/26 12:35:41;;;;;;;12.90;3.43;;;21.20;99.90;;;;;;5050736;28;20199;-62
2023/05/26 12:38:11;;;;;;;11.03;3.30;;;21.30;99.90;;;;;;5078464;28;20774;-59
2023/05/26 12:40:38;;;;;;;10.30;3.13;;;21.30;99.90;;;;;;5066536;28;20220;-59
2023/05/26 12:43:05;;;;;;;8.20;3.43;;;21.20;99.90;;;;;;5060103;28;20288;-61
2023/05/26 12:45:34;;;;;;;8.23;2.63;;;21.00;99.90;;;;;;5078194;28;20574;-61
2023/05/26 12:48:01;;;;;;;8.60;2.90;;;21.40;99.90;;;;;;5072291;28;20286;-62
2023/05/26 12:50:28;;;;;;;9.47;3.10;;;20.60;99.90;;;;;;5077248;28;20285;-60